Time;durP1;ratioP1;P1;durP2;ratioP2;P2;SDS_P1;SDS_P2;PMS_P1;PMS_P2;Temp;Humidity;BMP_temperature;BMP_pressure;BME280_temperature;BME280_humidity;BME280_pressure;Samples;Min_cycle;Max_cycle;Signal;HPM_P1;HPM_P2
2022/07/04 00:01:05;;;;;;;6.22;2.45;;;17.70;61.20;;;;;;5097776;28;20028;-75
2022/07/04 00:03:30;;;;;;;4.93;2.40;;;17.60;61.30;;;;;;5115161;28;20056;-75
2022/07/04 00:05:56;;;;;;;6.15;2.70;;;17.60;61.20;;;;;;5115587;28;20028;-74
2022/07/04 00:08:21;;;;;;;6.18;4.13;;;17.60;61.30;;;;;;5115572;28;20043;-75
2022/07/04 00:10:47;;;;;;;3.92;2.83;;;17.50;61.90;;;;;;5115468;28;20032;-75
2022/07/04 00:13:12;;;;;;;4.97;2.97;;;17.30;62.80;;;;;;5115355;28;20028;-75
2022/07/04 00:15:38;;;;;;;6.82;2.75;;;17.40;63.10;;;;;;5115409;28;20024;-75
2022/07/04 00:18:04;;;;;;;6.05;3.28;;;17.40;62.80;;;;;;5115360;28;20023;-75
2022/07/04 00:20:30;;;;;;;3.97;2.88;;;17.40;62.90;;;;;;5115299;28;20044;-75
2022/07/04 00:22:55;;;;;;;6.60;2.80;;;17.50;62.70;;;;;;5115289;28;20093;-75
2022/07/04 00:25:21;;;;;;;7.50;2.78;;;17.40;62.80;;;;;;5115250;28;20087;-75
2022/07/04 00:27:46;;;;;;;5.50;3.10;;;17.40;62.80;;;;;;5115140;28;20032;-75
2022/07/04 00:30:12;;;;;;;6.63;2.92;;;17.40;62.70;;;;;;5115093;28;20024;-75
2022/07/04 00:32:38;;;;;;;7.70;3.55;;;17.40;62.80;;;;;;5114963;28;20031;-75
2022/07/04 00:35:05;;;;;;;6.30;3.22;;;17.30;62.70;;;;;;5115000;28;20024;-75
2022/07/04 00:37:30;;;;;;;4.82;3.00;;;17.30;62.80;;;;;;5115111;28;20035;-75
2022/07/04 00:39:56;;;;;;;3.63;2.92;;;17.30;63.10;;;;;;5096955;28;20452;-74
2022/07/04 00:42:21;;;;;;;4.22;3.00;;;17.20;63.00;;;;;;5096985;28;20091;-74
2022/07/04 00:44:47;;;;;;;8.48;3.42;;;17.10;63.50;;;;;;5097007;28;20024;-75
2022/07/04 00:47:13;;;;;;;4.25;3.15;;;17.00;64.10;;;;;;5114733;28;20032;-75
2022/07/04 00:49:40;;;;;;;4.22;3.08;;;17.10;64.40;;;;;;5096859;28;20020;-74
2022/07/04 00:52:07;;;;;;;4.55;3.40;;;17.00;64.20;;;;;;5114647;28;20027;-74
2022/07/04 00:54:32;;;;;;;5.97;3.25;;;16.80;64.50;;;;;;5114405;28;20063;-75
2022/07/04 00:57:00;;;;;;;7.05;3.10;;;16.60;64.90;;;;;;5096827;28;20028;-75
2022/07/04 00:59:25;;;;;;;4.50;2.80;;;16.50;65.80;;;;;;5114543;28;20020;-75
2022/07/04 01:01:51;;;;;;;5.18;3.05;;;16.30;65.90;;;;;;5096521;28;20035;-75
2022/07/04 01:04:17;;;;;;;6.03;2.95;;;16.20;66.20;;;;;;5114446;28;20103;-74
2022/07/04 01:06:45;;;;;;;4.40;2.70;;;16.20;66.90;;;;;;5114380;28;20028;-74
2022/07/04 01:09:11;;;;;;;6.15;3.28;;;16.20;66.60;;;;;;5114432;28;20032;-75
2022/07/04 01:11:37;;;;;;;4.75;3.35;;;16.20;67.00;;;;;;5114285;28;20034;-74
2022/07/04 01:14:05;;;;;;;5.55;3.10;;;16.30;67.90;;;;;;5113416;28;20063;-74
2022/07/04 01:16:31;;;;;;;5.60;3.55;;;16.20;67.80;;;;;;5114232;28;20016;-75
2022/07/04 01:18:56;;;;;;;6.03;3.65;;;16.20;67.40;;;;;;5114153;28;20020;-75
2022/07/04 01:21:22;;;;;;;6.22;3.50;;;16.20;67.10;;;;;;5114124;28;20074;-75
2022/07/04 01:23:47;;;;;;;6.65;4.03;;;16.30;66.90;;;;;;5114225;28;20055;-76
2022/07/04 01:26:13;;;;;;;6.10;3.63;;;16.10;67.00;;;;;;5114048;28;20024;-75
2022/07/04 01:28:40;;;;;;;4.53;3.80;;;16.10;67.50;;;;;;5096101;28;20039;-75
2022/07/04 01:31:06;;;;;;;6.05;3.83;;;16.10;67.60;;;;;;5113965;28;20035;-74
2022/07/04 01:33:32;;;;;;;7.03;3.70;;;16.30;67.80;;;;;;5113867;28;20201;-75
2022/07/04 01:35:58;;;;;;;9.10;4.05;;;16.30;67.20;;;;;;5113911;28;20020;-75
2022/07/04 01:38:24;;;;;;;4.68;3.80;;;16.30;67.10;;;;;;5095919;28;20031;-75
2022/07/04 01:40:50;;;;;;;9.95;4.07;;;16.20;67.00;;;;;;5113817;28;20398;-75
2022/07/04 01:43:16;;;;;;;5.60;3.88;;;16.30;67.40;;;;;;5113909;28;20036;-75
2022/07/04 01:45:41;;;;;;;6.00;3.70;;;16.40;67.40;;;;;;5113734;28;20089;-75
2022/07/04 01:48:10;;;;;;;6.45;3.83;;;16.40;67.20;;;;;;5113714;28;20028;-75
2022/07/04 01:50:36;;;;;;;6.20;3.50;;;16.20;66.70;;;;;;5095798;28;20028;-75
2022/07/04 01:53:02;;;;;;;6.40;3.85;;;16.10;67.30;;;;;;5113420;28;20116;-75
2022/07/04 01:55:28;;;;;;;4.22;3.28;;;16.10;67.60;;;;;;5113678;28;20024;-75
2022/07/04 01:57:54;;;;;;;5.35;3.58;;;16.20;67.20;;;;;;5113557;28;20020;-75
2022/07/04 02:03:04;;;;;;;5.38;3.65;;;16.20;68.00;;;;;;5113602;28;20035;-75
2022/07/04 02:05:30;;;;;;;4.68;3.50;;;16.20;67.40;;;;;;5113199;28;20032;-74
2022/07/04 02:07:56;;;;;;;5.57;3.40;;;16.10;67.50;;;;;;5113651;28;20075;-75
2022/07/04 02:10:22;;;;;;;6.15;3.38;;;16.00;66.90;;;;;;5113448;28;20063;-75
2022/07/04 02:13:06;;;;;;;6.28;3.40;;;16.10;66.80;;;;;;5113350;28;20095;-75
2022/07/04 02:15:33;;;;;;;6.88;4.00;;;16.10;66.50;;;;;;5113595;28;20051;-74
2022/07/04 02:17:59;;;;;;;9.25;3.83;;;16.00;66.60;;;;;;5095512;28;20024;-75
2022/07/04 02:20:25;;;;;;;5.40;3.83;;;16.00;66.60;;;;;;5095747;28;20107;-75
2022/07/04 02:22:51;;;;;;;5.40;3.38;;;15.90;66.50;;;;;;5113248;28;20036;-75
2022/07/04 02:25:17;;;;;;;5.82;3.40;;;15.80;66.50;;;;;;5113800;28;20051;-75
2022/07/04 02:27:43;;;;;;;5.50;3.63;;;15.80;67.00;;;;;;5099681;28;20115;-75
2022/07/04 02:30:09;;;;;;;5.35;3.15;;;15.90;67.00;;;;;;5117392;28;20032;-75
2022/07/04 02:32:35;;;;;;;4.22;3.17;;;15.90;66.40;;;;;;5099490;28;20032;-75
2022/07/04 02:35:01;;;;;;;5.60;3.20;;;15.90;66.10;;;;;;5117345;28;20033;-75
2022/07/04 02:37:27;;;;;;;7.82;3.50;;;15.70;66.20;;;;;;5117301;28;20028;-76
2022/07/04 02:39:53;;;;;;;5.72;3.53;;;15.80;67.10;;;;;;5117254;28;20039;-75
2022/07/04 02:42:19;;;;;;;4.90;3.35;;;15.80;66.90;;;;;;5117176;28;20036;-75
2022/07/04 02:44:45;;;;;;;6.43;3.85;;;15.80;66.70;;;;;;5117132;28;20039;-75
2022/07/04 02:47:11;;;;;;;6.30;3.60;;;15.70;66.20;;;;;;5117127;28;20024;-74
2022/07/04 02:49:36;;;;;;;5.45;4.18;;;15.50;67.10;;;;;;5099059;28;20026;-75
2022/07/04 02:52:02;;;;;;;8.60;4.70;;;15.40;67.40;;;;;;5116954;28;20028;-74
2022/07/04 02:54:28;;;;;;;6.03;3.80;;;15.30;67.80;;;;;;5098819;28;20052;-75
2022/07/04 02:56:53;;;;;;;7.82;3.78;;;15.30;68.20;;;;;;5116896;28;20077;-75
2022/07/04 02:59:19;;;;;;;6.28;4.00;;;15.30;68.20;;;;;;5116865;28;20021;-74
2022/07/04 03:01:44;;;;;;;5.80;4.10;;;15.40;67.90;;;;;;5116804;28;20032;-74
2022/07/04 03:04:10;;;;;;;7.35;4.60;;;15.30;68.00;;;;;;5116788;28;20039;-75
2022/07/04 03:06:36;;;;;;;6.28;4.22;;;15.20;68.30;;;;;;5116748;28;20028;-75
2022/07/04 03:09:01;;;;;;;5.75;4.15;;;15.20;68.70;;;;;;5116681;28;20036;-74
2022/07/04 03:11:27;;;;;;;6.80;3.92;;;15.20;68.50;;;;;;5116780;28;20024;-75
2022/07/04 03:13:53;;;;;;;5.97;4.18;;;15.10;68.30;;;;;;5116523;28;20044;-74
2022/07/04 03:16:18;;;;;;;7.03;4.10;;;14.90;68.60;;;;;;5116557;28;20031;-74
2022/07/04 03:18:44;;;;;;;5.03;3.80;;;14.80;69.40;;;;;;5098539;28;20035;-74
2022/07/04 03:21:09;;;;;;;7.78;4.43;;;14.90;69.50;;;;;;5116477;28;20092;-75
2022/07/04 03:23:35;;;;;;;6.35;4.28;;;14.90;69.20;;;;;;5116365;28;20024;-74
2022/07/04 03:26:02;;;;;;;8.35;4.53;;;15.00;69.90;;;;;;5116346;28;20035;-75
2022/07/04 03:28:28;;;;;;;8.25;4.85;;;14.90;70.30;;;;;;5116206;28;20078;-74
2022/07/04 03:30:54;;;;;;;7.97;4.38;;;15.00;71.30;;;;;;5116259;28;20024;-75
2022/07/04 03:33:20;;;;;;;6.30;4.50;;;15.10;70.30;;;;;;5116141;28;20090;-75
2022/07/04 03:35:45;;;;;;;5.90;4.38;;;15.20;70.10;;;;;;5116190;28;20046;-75
2022/07/04 03:38:11;;;;;;;7.60;4.35;;;15.30;69.70;;;;;;5115267;28;20032;-75
2022/07/04 03:40:38;;;;;;;9.13;4.50;;;15.20;69.70;;;;;;5116092;28;20016;-75
2022/07/04 03:43:06;;;;;;;6.20;4.65;;;15.20;69.90;;;;;;5116010;28;20084;-75
2022/07/04 03:45:32;;;;;;;8.35;4.50;;;15.20;70.10;;;;;;5115978;28;20020;-75
2022/07/04 03:47:58;;;;;;;7.05;4.80;;;15.20;70.00;;;;;;5115940;28;20020;-75
2022/07/04 03:50:24;;;;;;;8.43;4.53;;;15.30;70.10;;;;;;5097922;28;20035;-75
2022/07/04 03:52:49;;;;;;;10.45;4.63;;;15.30;70.10;;;;;;5115560;28;20060;-75
2022/07/04 03:55:15;;;;;;;7.75;4.40;;;15.40;70.10;;;;;;5115812;28;20063;-75
2022/07/04 03:57:41;;;;;;;6.35;4.82;;;15.40;69.90;;;;;;5097842;28;20050;-75
2022/07/04 04:00:07;;;;;;;9.23;5.10;;;15.40;70.10;;;;;;5097846;28;20028;-74
2022/07/04 04:02:33;;;;;;;8.50;5.45;;;15.40;70.10;;;;;;5115623;28;20071;-74
2022/07/04 04:07:43;;;;;;;9.60;4.60;;;15.40;70.20;;;;;;5115678;28;20045;-74
2022/07/04 04:10:09;;;;;;;6.60;4.88;;;15.40;70.30;;;;;;5097759;28;20016;-75
2022/07/04 04:12:35;;;;;;;9.32;5.25;;;15.30;70.70;;;;;;5115359;28;20024;-76
2022/07/04 04:15:01;;;;;;;7.53;5.22;;;15.10;71.10;;;;;;5115442;28;20024;-75
2022/07/04 04:17:26;;;;;;;10.48;4.93;;;15.00;71.60;;;;;;5115358;28;20044;-75
2022/07/04 04:19:52;;;;;;;7.43;5.13;;;14.90;71.90;;;;;;5115328;28;20036;-75
2022/07/04 04:22:17;;;;;;;7.97;4.72;;;14.90;72.30;;;;;;5115388;28;20024;-74
2022/07/04 04:24:43;;;;;;;6.53;4.95;;;15.00;72.70;;;;;;5115201;28;20066;-74
2022/07/04 04:27:08;;;;;;;7.30;5.05;;;15.00;72.70;;;;;;5115141;28;20058;-75
2022/07/04 04:29:34;;;;;;;8.75;5.10;;;15.10;73.10;;;;;;5115084;28;20032;-75
2022/07/04 04:32:00;;;;;;;7.90;4.50;;;15.10;73.40;;;;;;5115085;28;20032;-76
2022/07/04 04:34:25;;;;;;;9.32;5.20;;;15.00;73.40;;;;;;5115137;28;20088;-75
2022/07/04 04:36:51;;;;;;;10.48;5.40;;;15.00;74.00;;;;;;5114970;28;20031;-76
2022/07/04 04:39:16;;;;;;;7.95;4.90;;;15.00;74.40;;;;;;5114925;28;20034;-75
2022/07/04 04:41:42;;;;;;;11.88;5.40;;;14.90;74.60;;;;;;5115060;28;20053;-75
2022/07/04 04:44:08;;;;;;;7.38;5.25;;;14.90;75.00;;;;;;5114842;28;20066;-75
2022/07/04 04:46:33;;;;;;;8.65;5.38;;;14.80;75.40;;;;;;5114766;28;20042;-74
2022/07/04 04:48:59;;;;;;;9.27;5.95;;;14.80;75.80;;;;;;5096879;28;20039;-75
2022/07/04 04:51:25;;;;;;;8.40;5.93;;;14.70;76.30;;;;;;5096811;28;20027;-75
2022/07/04 04:53:50;;;;;;;11.30;5.90;;;14.70;76.40;;;;;;5114445;28;20052;-74
2022/07/04 04:56:16;;;;;;;9.55;5.28;;;14.60;77.20;;;;;;5114617;28;20103;-75
2022/07/04 04:58:42;;;;;;;7.90;5.13;;;14.50;77.30;;;;;;5114636;28;20089;-74
2022/07/04 05:01:07;;;;;;;8.82;4.85;;;14.60;77.30;;;;;;5114506;28;20028;-74
2022/07/04 05:03:33;;;;;;;10.77;5.60;;;14.70;77.30;;;;;;5114486;28;20036;-75
2022/07/04 05:05:58;;;;;;;6.18;4.47;;;14.70;77.30;;;;;;5114422;28;20020;-74
2022/07/04 05:08:25;;;;;;;8.70;5.03;;;14.70;77.10;;;;;;5114400;28;20059;-75
2022/07/04 05:10:51;;;;;;;6.22;4.55;;;14.70;77.20;;;;;;5114343;28;20024;-74
2022/07/04 05:13:17;;;;;;;9.15;5.40;;;14.80;77.20;;;;;;5114251;28;20036;-75
2022/07/04 05:15:43;;;;;;;10.32;5.05;;;14.80;77.50;;;;;;5114262;28;20052;-75
2022/07/04 05:18:08;;;;;;;9.95;5.25;;;14.80;77.90;;;;;;5114231;28;20024;-75
2022/07/04 05:20:34;;;;;;;6.70;5.00;;;14.80;78.20;;;;;;5114141;28;20031;-75
2022/07/04 05:23:00;;;;;;;12.85;5.07;;;14.90;78.30;;;;;;5114139;28;20036;-75
2022/07/04 05:25:25;;;;;;;8.93;5.00;;;15.00;78.40;;;;;;5114093;28;20028;-74
2022/07/04 05:27:51;;;;;;;8.43;5.13;;;15.00;78.00;;;;;;5113606;28;20057;-75
2022/07/04 05:30:17;;;;;;;7.40;5.30;;;15.10;78.50;;;;;;5096031;28;20024;-75
2022/07/04 05:32:42;;;;;;;10.48;5.13;;;15.10;78.60;;;;;;5113897;28;20557;-75
2022/07/04 05:35:09;;;;;;;8.27;5.32;;;15.10;79.40;;;;;;5096088;28;20028;-74
2022/07/04 05:37:35;;;;;;;10.45;5.47;;;15.20;78.70;;;;;;5095977;28;20024;-75
2022/07/04 05:40:02;;;;;;;9.55;5.68;;;15.20;78.80;;;;;;5113842;28;20029;-75
2022/07/04 05:42:30;;;;;;;8.43;5.85;;;15.30;78.90;;;;;;5113854;28;20020;-74
2022/07/04 05:44:56;;;;;;;9.98;5.38;;;15.40;78.90;;;;;;5095901;28;20051;-74
2022/07/04 05:47:25;;;;;;;9.18;5.70;;;15.40;79.40;;;;;;5113729;28;20115;-75
2022/07/04 05:49:51;;;;;;;10.63;5.80;;;15.40;79.10;;;;;;5113714;28;20060;-75
2022/07/04 05:52:17;;;;;;;8.77;5.68;;;15.60;79.30;;;;;;5113657;28;20034;-75
2022/07/04 05:54:42;;;;;;;12.07;6.20;;;15.60;79.20;;;;;;5095625;28;20112;-75
2022/07/04 05:57:08;;;;;;;8.15;5.95;;;15.70;79.10;;;;;;5113586;28;20025;-74
2022/07/04 05:59:34;;;;;;;7.82;5.47;;;15.80;79.10;;;;;;5113637;28;20024;-74
2022/07/04 06:02:00;;;;;;;7.93;5.30;;;15.90;79.60;;;;;;5112892;28;20032;-74
2022/07/04 06:04:25;;;;;;;10.73;5.95;;;16.00;78.80;;;;;;5113555;28;20035;-74
2022/07/04 06:06:51;;;;;;;8.60;5.80;;;16.10;78.00;;;;;;5113623;28;20028;-75
2022/07/04 06:09:17;;;;;;;10.35;5.88;;;16.20;79.20;;;;;;5113421;28;20097;-76
2022/07/04 06:11:42;;;;;;;7.10;5.43;;;16.30;79.00;;;;;;5113510;28;20032;-76
2022/07/04 06:14:08;;;;;;;11.45;6.00;;;16.30;77.70;;;;;;5113372;28;20507;-77
2022/07/04 06:16:34;;;;;;;7.50;5.40;;;16.30;77.70;;;;;;5113357;28;20018;-76
2022/07/04 06:18:59;;;;;;;12.25;5.80;;;16.40;77.20;;;;;;5113409;28;20513;-76
2022/07/04 06:21:25;;;;;;;6.88;5.20;;;16.50;77.00;;;;;;5113380;28;20046;-76
2022/07/04 06:23:51;;;;;;;8.55;5.90;;;16.70;77.70;;;;;;5113353;28;20032;-76
2022/07/04 06:26:16;;;;;;;9.02;5.93;;;16.70;76.50;;;;;;5113372;28;20042;-76
2022/07/04 06:28:42;;;;;;;10.02;5.88;;;16.70;76.20;;;;;;5113166;28;20074;-77
2022/07/04 06:31:07;;;;;;;12.73;6.03;;;16.80;76.40;;;;;;5113290;28;20048;-76
2022/07/04 06:35:44;;;;;;;10.40;5.35;;;16.80;77.10;;;;;;5113199;28;20032;-76
2022/07/04 06:36:19;;;;;;;7.53;5.60;;;16.90;75.80;;;;;;5113185;28;20050;-76
2022/07/04 06:38:44;;;;;;;10.07;5.47;;;16.90;75.40;;;;;;5113272;28;20047;-77
2022/07/04 06:41:11;;;;;;;9.32;5.18;;;16.90;75.30;;;;;;5113401;28;20047;-76
2022/07/04 06:43:36;;;;;;;10.65;5.47;;;16.90;75.00;;;;;;5113290;28;20055;-76
2022/07/04 06:46:02;;;;;;;7.75;5.15;;;17.00;74.90;;;;;;5095375;28;20032;-75
2022/07/04 06:48:27;;;;;;;9.45;4.90;;;17.10;74.80;;;;;;5113136;28;20036;-75
2022/07/04 06:50:53;;;;;;;7.32;4.30;;;17.20;74.70;;;;;;5113091;28;20060;-76
2022/07/04 06:53:19;;;;;;;7.63;4.25;;;17.30;73.80;;;;;;5094932;28;20052;-74
2022/07/04 06:55:44;;;;;;;12.90;4.60;;;17.30;74.40;;;;;;5113056;28;20039;-76
2022/07/04 06:58:12;;;;;;;7.32;4.45;;;17.40;75.10;;;;;;5113030;28;20039;-76
2022/07/04 07:00:41;;;;;;;10.05;4.68;;;17.40;74.50;;;;;;5112979;28;20027;-76
2022/07/04 07:03:06;;;;;;;10.00;4.95;;;17.50;74.90;;;;;;5112898;28;20028;-75
2022/07/04 07:05:32;;;;;;;10.02;4.40;;;17.70;74.80;;;;;;5113021;28;20040;-75
2022/07/04 07:07:58;;;;;;;8.98;4.45;;;17.70;74.00;;;;;;5112957;28;20028;-75
2022/07/04 07:10:24;;;;;;;6.22;4.28;;;17.80;74.10;;;;;;5112945;28;20032;-75
2022/07/04 07:12:49;;;;;;;9.23;4.55;;;17.80;73.90;;;;;;5114188;28;20035;-75
2022/07/04 07:15:16;;;;;;;8.98;4.50;;;17.80;73.10;;;;;;5116557;28;20060;-76
2022/07/04 07:17:42;;;;;;;9.93;4.30;;;17.80;72.10;;;;;;5116698;28;20030;-75
2022/07/04 07:20:09;;;;;;;8.15;4.05;;;17.80;72.60;;;;;;5116482;28;20040;-76
2022/07/04 07:22:34;;;;;;;8.48;4.35;;;17.80;72.10;;;;;;5116609;28;20020;-76
2022/07/04 07:25:00;;;;;;;10.93;4.30;;;18.00;73.00;;;;;;5116415;28;20031;-76
2022/07/04 07:27:26;;;;;;;9.25;4.82;;;18.00;72.90;;;;;;5116341;28;20024;-76
2022/07/04 07:29:51;;;;;;;9.85;4.80;;;18.20;74.20;;;;;;5116219;28;20028;-76
2022/07/04 07:32:17;;;;;;;6.47;4.10;;;18.30;72.60;;;;;;5116273;28;20056;-75
2022/07/04 07:34:43;;;;;;;8.32;4.32;;;18.30;71.70;;;;;;5116156;28;20032;-75
2022/07/04 07:37:08;;;;;;;8.02;4.45;;;18.30;70.90;;;;;;5116307;28;20051;-75
2022/07/04 07:39:34;;;;;;;8.35;4.35;;;18.30;71.80;;;;;;5116040;28;20052;-74
2022/07/04 07:42:00;;;;;;;8.38;4.25;;;18.30;71.70;;;;;;5116078;28;20087;-75
2022/07/04 07:44:25;;;;;;;9.27;4.60;;;18.40;73.60;;;;;;5115997;28;20028;-75
2022/07/04 07:46:51;;;;;;;7.90;4.38;;;18.50;71.90;;;;;;5115954;28;20031;-75
2022/07/04 07:49:17;;;;;;;7.55;4.13;;;18.50;72.30;;;;;;5115928;28;20375;-74
2022/07/04 07:51:42;;;;;;;7.78;4.38;;;18.50;70.60;;;;;;5115853;28;20394;-74
2022/07/04 07:54:08;;;;;;;9.30;5.13;;;18.60;70.30;;;;;;5097703;28;20051;-75
2022/07/04 07:56:34;;;;;;;9.63;4.05;;;18.60;71.10;;;;;;5115829;28;20035;-74
2022/07/04 07:58:59;;;;;;;7.97;4.00;;;18.60;70.90;;;;;;5081094;28;20046;-74
2022/07/04 08:01:25;;;;;;;7.00;4.05;;;18.80;72.20;;;;;;5115704;28;20134;-74
2022/07/04 08:06:35;;;;;;;10.02;4.22;;;18.90;71.90;;;;;;5115887;28;20081;-74
2022/07/04 08:09:00;;;;;;;7.45;4.50;;;19.00;71.90;;;;;;5115581;28;20394;-74
2022/07/04 08:11:26;;;;;;;9.75;4.43;;;19.10;71.10;;;;;;5115540;28;20028;-74
2022/07/04 08:13:52;;;;;;;8.50;4.68;;;19.10;70.60;;;;;;5115379;28;20024;-74
2022/07/04 08:16:18;;;;;;;9.80;4.38;;;19.30;72.20;;;;;;5115423;28;20054;-74
2022/07/04 08:18:44;;;;;;;5.65;3.75;;;19.40;70.50;;;;;;5097434;28;20020;-74
2022/07/04 08:21:10;;;;;;;9.00;4.18;;;19.40;68.90;;;;;;5115301;28;20031;-74
2022/07/04 08:23:36;;;;;;;7.38;3.80;;;19.40;68.80;;;;;;5114929;28;20028;-74
2022/07/04 08:26:03;;;;;;;6.65;3.90;;;19.60;68.10;;;;;;5115204;28;20024;-74
2022/07/04 08:28:29;;;;;;;5.68;3.38;;;19.60;67.40;;;;;;5115130;28;20028;-74
2022/07/04 08:30:56;;;;;;;9.05;4.07;;;19.70;67.00;;;;;;5115121;28;20028;-73
2022/07/04 08:33:22;;;;;;;8.02;3.88;;;19.70;67.40;;;;;;5115036;28;20032;-74
2022/07/04 08:35:48;;;;;;;6.80;3.20;;;19.80;69.20;;;;;;5115050;28;20024;-74
2022/07/04 08:38:15;;;;;;;6.15;3.92;;;19.80;67.10;;;;;;5114993;28;20016;-74
2022/07/04 08:40:41;;;;;;;6.80;3.17;;;19.80;67.70;;;;;;5114966;28;20028;-74
2022/07/04 08:43:09;;;;;;;6.43;3.17;;;19.90;66.00;;;;;;5114839;28;20028;-74
2022/07/04 08:45:34;;;;;;;4.43;2.45;;;19.90;64.80;;;;;;5114866;28;20073;-74
2022/07/04 08:48:03;;;;;;;6.45;2.80;;;19.90;64.60;;;;;;5096929;28;20091;-74
2022/07/04 08:50:34;;;;;;;6.32;2.60;;;20.00;66.00;;;;;;5114767;28;20020;-74
2022/07/04 08:53:03;;;;;;;5.32;3.00;;;20.10;64.50;;;;;;5114535;28;20044;-74
2022/07/04 08:58:25;;;;;;;5.68;3.08;;;20.30;65.30;;;;;;5076511;28;20021;-75
2022/07/04 09:00:52;;;;;;;5.93;2.80;;;20.40;65.60;;;;;;5097596;28;20372;-74
2022/07/04 09:03:19;;;;;;;4.13;2.30;;;20.50;66.30;;;;;;5114550;28;20028;-75
2022/07/04 09:05:44;;;;;;;3.60;2.30;;;20.60;63.70;;;;;;5114456;28;20028;-75
2022/07/04 09:08:10;;;;;;;7.78;2.70;;;20.70;63.30;;;;;;5114416;28;20039;-75
2022/07/04 09:10:36;;;;;;;5.68;2.08;;;20.70;61.70;;;;;;5114097;28;20027;-74
2022/07/04 09:13:04;;;;;;;7.05;2.13;;;20.70;62.80;;;;;;5114416;28;20024;-74
2022/07/04 09:15:31;;;;;;;4.97;2.13;;;20.70;61.10;;;;;;5114334;28;20016;-74
2022/07/04 09:18:01;;;;;;;6.70;2.08;;;20.70;62.60;;;;;;5114292;28;20054;-76
2022/07/04 09:20:29;;;;;;;5.93;2.58;;;20.80;61.90;;;;;;5114193;28;20020;-74
2022/07/04 09:22:55;;;;;;;4.95;2.28;;;20.80;62.60;;;;;;5096368;28;20016;-74
2022/07/04 09:25:22;;;;;;;4.82;2.03;;;20.90;62.60;;;;;;5114146;28;20080;-75
2022/07/04 09:27:53;;;;;;;6.10;2.20;;;21.00;61.20;;;;;;5114042;28;20021;-75
2022/07/04 09:30:21;;;;;;;4.82;2.25;;;21.20;59.60;;;;;;5114188;28;20016;-75
2022/07/04 09:32:53;;;;;;;6.13;2.63;;;21.20;58.90;;;;;;5113964;28;20020;-75
2022/07/04 09:35:25;;;;;;;4.27;2.63;;;21.30;59.30;;;;;;5113414;28;20080;-74
2022/07/04 09:37:56;;;;;;;7.53;2.38;;;21.40;59.00;;;;;;5114003;28;20266;-74
2022/07/04 09:43:21;;;;;;;5.90;2.40;;;21.50;58.80;;;;;;5114057;28;20038;-74
2022/07/04 09:45:58;;;;;;;3.28;1.80;;;21.50;58.60;;;;;;5113817;28;20039;-75
2022/07/04 09:48:24;;;;;;;2.50;1.50;;;21.60;58.10;;;;;;5113799;28;20031;-74
2022/07/04 09:50:50;;;;;;;8.07;2.10;;;21.70;58.30;;;;;;5113715;28;20057;-74
2022/07/04 09:53:17;;;;;;;5.05;1.83;;;21.70;57.50;;;;;;5113436;28;20044;-74
2022/07/04 09:55:42;;;;;;;3.00;1.90;;;21.80;61.00;;;;;;5113689;28;20024;-74
2022/07/04 09:58:14;;;;;;;2.85;2.25;;;21.90;58.80;;;;;;5095824;28;20048;-74
2022/07/04 10:00:42;;;;;;;4.63;2.15;;;21.90;57.70;;;;;;5113662;28;20084;-74
2022/07/04 10:03:20;;;;;;;4.43;2.22;;;22.00;56.50;;;;;;5113610;28;20031;-74
2022/07/04 10:05:48;;;;;;;8.27;2.85;;;22.10;55.90;;;;;;5113500;28;20027;-74
2022/07/04 10:08:13;;;;;;;3.85;1.88;;;22.20;55.50;;;;;;5113458;28;20035;-74
2022/07/04 10:10:39;;;;;;;4.70;2.25;;;22.10;57.50;;;;;;5113513;28;20051;-74
2022/07/04 10:13:10;;;;;;;4.47;2.00;;;22.30;56.00;;;;;;5113388;28;20028;-74
2022/07/04 10:15:39;;;;;;;4.30;1.80;;;22.20;54.60;;;;;;5113426;28;20028;-74
2022/07/04 10:18:06;;;;;;;4.20;2.17;;;22.20;56.70;;;;;;5113290;28;20058;-74
2022/07/04 10:20:31;;;;;;;4.53;2.35;;;22.40;56.10;;;;;;5113337;28;20028;-74
2022/07/04 10:22:58;;;;;;;5.40;2.30;;;22.50;54.80;;;;;;5113390;28;20048;-75
2022/07/04 10:25:25;;;;;;;4.15;1.70;;;22.50;55.40;;;;;;5113299;28;20028;-76
2022/07/04 10:27:51;;;;;;;5.75;2.00;;;22.50;54.10;;;;;;5095348;28;20051;-75
2022/07/04 10:30:26;;;;;;;4.30;1.90;;;22.60;55.10;;;;;;5113323;28;20028;-75
2022/07/04 10:32:54;;;;;;;3.65;1.80;;;22.70;53.80;;;;;;5113293;28;20031;-75
2022/07/04 10:35:53;;;;;;;4.53;1.92;;;22.70;55.20;;;;;;5113259;28;20024;-74
2022/07/04 10:38:30;;;;;;;6.38;2.30;;;22.80;57.90;;;;;;5113289;28;20018;-74
2022/07/04 10:41:06;;;;;;;4.78;1.95;;;22.70;53.10;;;;;;5095523;28;20024;-75
2022/07/04 10:43:41;;;;;;;6.38;1.75;;;22.70;55.30;;;;;;5113399;28;20020;-75
2022/07/04 10:46:15;;;;;;;4.90;2.38;;;22.80;54.80;;;;;;5113377;28;20020;-75
2022/07/04 10:49:02;;;;;;;4.70;2.15;;;22.80;53.80;;;;;;5117159;28;20450;-74
2022/07/04 10:51:39;;;;;;;4.65;1.80;;;22.80;54.80;;;;;;5117134;28;20020;-74
2022/07/04 10:54:28;;;;;;;5.30;2.28;;;22.50;51.70;;;;;;5116816;28;20044;-74
2022/07/04 10:56:55;;;;;;;2.90;2.05;;;22.60;52.50;;;;;;5117042;28;20028;-74
2022/07/04 10:59:29;;;;;;;4.88;2.25;;;22.50;52.30;;;;;;5099040;28;20028;-74
2022/07/04 11:02:06;;;;;;;4.38;1.88;;;22.50;53.50;;;;;;5117041;28;20102;-74
2022/07/04 11:05:01;;;;;;;4.03;1.83;;;22.50;52.40;;;;;;5116874;28;20059;-74
2022/07/04 11:07:30;;;;;;;6.03;2.05;;;22.50;52.40;;;;;;5116953;28;20024;-74
2022/07/04 11:10:21;;;;;;;3.55;1.90;;;22.60;53.10;;;;;;5116758;28;20028;-74
2022/07/04 11:12:55;;;;;;;3.00;1.90;;;22.80;53.30;;;;;;5116793;28;20024;-75
2022/07/04 11:15:27;;;;;;;4.15;2.50;;;23.00;51.90;;;;;;5098644;28;20031;-75
2022/07/04 11:17:55;;;;;;;3.78;2.47;;;23.10;52.40;;;;;;5116607;28;20024;-73
2022/07/04 11:20:22;;;;;;;5.32;2.63;;;23.20;50.80;;;;;;5116528;28;20028;-73
2022/07/04 11:22:48;;;;;;;3.85;2.30;;;22.90;51.00;;;;;;5116492;28;20020;-74
2022/07/04 11:25:14;;;;;;;3.42;2.13;;;22.80;52.30;;;;;;5098521;28;20063;-74
2022/07/04 11:27:40;;;;;;;5.07;2.17;;;22.90;52.70;;;;;;5116421;28;20020;-74
2022/07/04 11:30:07;;;;;;;6.63;2.28;;;22.90;52.70;;;;;;5116257;28;20025;-74
2022/07/04 11:32:34;;;;;;;4.88;2.00;;;22.90;52.40;;;;;;5098384;28;20096;-74
2022/07/04 11:35:00;;;;;;;4.68;1.85;;;22.90;53.00;;;;;;5116395;28;20036;-74
2022/07/04 11:37:26;;;;;;;5.05;2.38;;;23.00;54.60;;;;;;5116184;28;20166;-74
2022/07/04 11:45:02;;;;;;;5.15;2.20;;;23.00;52.90;;;;;;5116348;28;20024;-74
2022/07/04 11:45:23;;;;;;;4.43;2.72;;;23.00;53.00;;;;;;5116231;28;20043;-74
2022/07/04 11:47:49;;;;;;;5.15;2.75;;;22.90;53.10;;;;;;5116028;28;20040;-74
2022/07/04 11:50:18;;;;;;;6.35;2.80;;;22.90;54.50;;;;;;5116139;28;20054;-74
2022/07/04 11:52:53;;;;;;;5.55;3.13;;;22.90;53.60;;;;;;5115750;28;20051;-74
2022/07/04 11:55:21;;;;;;;5.32;3.05;;;22.90;54.10;;;;;;5115947;28;20055;-74
2022/07/04 11:57:49;;;;;;;8.43;2.90;;;23.00;54.60;;;;;;5115474;28;20040;-75
2022/07/04 12:00:16;;;;;;;5.47;3.65;;;23.10;54.40;;;;;;5115484;28;20030;-74
2022/07/04 12:02:43;;;;;;;8.85;3.40;;;23.10;54.20;;;;;;5115748;28;20031;-74
2022/07/04 12:05:11;;;;;;;6.32;3.10;;;23.10;53.30;;;;;;5115853;28;20024;-74
2022/07/04 12:07:39;;;;;;;6.50;3.00;;;23.00;53.50;;;;;;5115680;28;20021;-74
2022/07/04 12:10:15;;;;;;;7.32;2.90;;;23.00;53.80;;;;;;5115593;28;20040;-75
2022/07/04 12:12:56;;;;;;;4.75;2.90;;;23.10;53.70;;;;;;5115471;28;20489;-74
2022/07/04 12:15:24;;;;;;;6.22;3.15;;;23.30;52.70;;;;;;5115495;28;20059;-74
2022/07/04 12:17:52;;;;;;;4.18;2.80;;;23.40;52.50;;;;;;5115481;28;20046;-75
2022/07/04 12:20:18;;;;;;;7.25;3.40;;;23.50;52.70;;;;;;5115404;28;20012;-75
2022/07/04 12:22:53;;;;;;;6.57;2.90;;;23.60;50.70;;;;;;5115483;28;20032;-75
2022/07/04 12:25:39;;;;;;;9.00;3.60;;;23.70;51.00;;;;;;5115353;28;20020;-75
2022/07/04 12:28:14;;;;;;;6.28;3.83;;;23.70;49.10;;;;;;5115291;28;20027;-75
2022/07/04 12:30:58;;;;;;;6.22;3.30;;;23.70;49.70;;;;;;5115236;28;20018;-75
2022/07/04 12:33:26;;;;;;;4.78;2.85;;;23.60;47.20;;;;;;5115077;28;20024;-74
2022/07/04 12:36:02;;;;;;;8.05;2.83;;;23.60;47.20;;;;;;5115093;28;20024;-75
2022/07/04 12:38:28;;;;;;;4.47;2.70;;;23.80;46.40;;;;;;5115027;28;20024;-75
2022/07/04 12:41:02;;;;;;;5.97;2.85;;;23.90;47.10;;;;;;5114996;28;20031;-75
2022/07/04 12:43:43;;;;;;;3.25;2.58;;;24.20;48.50;;;;;;5114940;28;20020;-75
2022/07/04 12:46:11;;;;;;;4.07;2.25;;;24.30;44.60;;;;;;5114871;28;20033;-75
2022/07/04 12:48:40;;;;;;;3.88;2.20;;;24.20;44.40;;;;;;5097391;28;20029;-75
2022/07/04 12:51:25;;;;;;;5.25;2.42;;;24.30;45.30;;;;;;5114834;28;20024;-75
2022/07/04 12:53:54;;;;;;;4.22;2.30;;;24.50;44.60;;;;;;5114454;28;20044;-75
2022/07/04 12:56:32;;;;;;;5.07;2.63;;;24.50;44.10;;;;;;5114685;28;20020;-73
2022/07/04 12:58:59;;;;;;;4.85;2.67;;;24.60;45.10;;;;;;5114661;28;20031;-74
2022/07/04 13:01:24;;;;;;;4.55;2.53;;;24.70;45.80;;;;;;5114594;28;20027;-74
2022/07/04 13:03:50;;;;;;;8.13;2.60;;;24.70;45.90;;;;;;5114569;28;20047;-74